createdAt,value
2019-05-19T00:03:39.585Z,100.00
2019-05-19T00:08:44.415Z,100.00
2019-05-19T00:13:49.320Z,100.00
2019-05-19T00:18:54.042Z,100.00
2019-05-19T00:23:59.869Z,100.00
2019-05-19T00:29:05.178Z,100.00
2019-05-19T00:34:09.836Z,100.00
2019-05-19T00:39:14.483Z,100.00
2019-05-19T00:44:19.415Z,100.00
2019-05-19T00:49:24.188Z,100.00
2019-05-19T00:54:28.835Z,100.00
2019-05-19T00:59:34.281Z,99.90
2019-05-19T01:04:39.022Z,98.73
2019-05-19T01:09:43.795Z,99.21
2019-05-19T01:14:48.580Z,98.90
2019-05-19T01:19:56.122Z,98.97
2019-05-19T01:24:59.911Z,98.68
2019-05-19T01:30:04.820Z,98.23
2019-05-19T01:35:10.353Z,98.66
2019-05-19T01:40:15.276Z,99.10
2019-05-19T01:45:20.145Z,99.60
2019-05-19T01:50:24.945Z,99.88
2019-05-19T01:55:29.742Z,100.00
2019-05-19T02:00:34.643Z,100.00
2019-05-19T02:05:39.322Z,99.91
2019-05-19T02:10:44.008Z,100.00
2019-05-19T02:15:48.756Z,100.00
2019-05-19T02:20:53.585Z,100.00
2019-05-19T02:25:58.281Z,100.00
2019-05-19T02:31:03.071Z,100.00
2019-05-19T02:36:07.842Z,100.00
2019-05-19T02:41:15.865Z,100.00
2019-05-19T02:46:21.116Z,100.00
2019-05-19T02:51:27.493Z,100.00
2019-05-19T02:56:32.990Z,100.00
2019-05-19T03:01:56.515Z,100.00
2019-05-19T03:07:01.367Z,100.00
2019-05-19T03:12:06.158Z,100.00
2019-05-19T03:17:11.020Z,100.00
2019-05-19T03:22:15.861Z,100.00
2019-05-19T03:27:20.608Z,100.00
2019-05-19T03:32:34.808Z,100.00
2019-05-19T03:37:39.660Z,100.00
2019-05-19T03:42:44.319Z,100.00
2019-05-19T03:47:49.011Z,100.00
2019-05-19T03:52:53.701Z,100.00
2019-05-19T03:57:58.412Z,100.00
2019-05-19T04:03:03.149Z,100.00
2019-05-19T04:08:07.844Z,100.00
2019-05-19T04:13:12.494Z,100.00
2019-05-19T04:18:17.335Z,100.00
2019-05-19T04:23:22.899Z,100.00
2019-05-19T04:28:27.879Z,100.00
2019-05-19T04:33:32.636Z,100.00
2019-05-19T04:38:37.280Z,100.00
2019-05-19T04:43:41.988Z,100.00
2019-05-19T04:48:46.806Z,100.00
2019-05-19T04:53:51.555Z,100.00
2019-05-19T04:58:56.336Z,100.00
2019-05-19T05:04:01.055Z,100.00
2019-05-19T05:09:06.886Z,100.00
2019-05-19T05:14:11.751Z,100.00
2019-05-19T05:19:16.573Z,100.00
2019-05-19T05:24:22.330Z,100.00
2019-05-19T05:29:27.009Z,100.00
2019-05-19T05:34:31.755Z,100.00
2019-05-19T05:39:36.530Z,100.00
2019-05-19T05:44:41.245Z,100.00
2019-05-19T05:49:45.970Z,100.00
2019-05-19T05:54:50.800Z,100.00
2019-05-19T05:59:55.438Z,100.00
2019-05-19T06:05:00.239Z,100.00
2019-05-19T06:10:05.405Z,100.00
2019-05-19T06:15:10.480Z,100.00
2019-05-19T06:20:15.431Z,100.00
2019-05-19T06:25:20.159Z,100.00
2019-05-19T06:30:24.933Z,100.00
2019-05-19T06:35:29.632Z,100.00
2019-05-19T06:40:34.397Z,100.00
2019-05-19T06:45:39.195Z,100.00
2019-05-19T06:50:43.842Z,100.00
2019-05-19T06:55:48.960Z,100.00
2019-05-19T07:00:53.695Z,100.00
2019-05-19T07:05:58.542Z,100.00
2019-05-19T07:11:03.245Z,100.00
2019-05-19T07:16:08.070Z,100.00
2019-05-19T07:21:12.783Z,100.00
2019-05-19T07:26:17.566Z,100.00
2019-05-19T07:31:22.845Z,100.00
2019-05-19T07:36:27.663Z,99.92
2019-05-19T07:41:32.282Z,99.63
2019-05-19T07:46:37.082Z,98.75
2019-05-19T07:51:42.659Z,97.81
2019-05-19T07:56:47.355Z,97.04
2019-05-19T08:01:52.080Z,96.87
2019-05-19T08:06:56.882Z,95.15
2019-05-19T08:12:01.655Z,95.31
2019-05-19T08:17:06.622Z,95.63
2019-05-19T08:22:11.891Z,95.82
2019-05-19T08:27:16.723Z,94.93
2019-05-19T08:32:21.521Z,93.77
2019-05-19T08:37:26.381Z,94.26
2019-05-19T08:42:31.151Z,94.10
2019-05-19T08:47:36.214Z,93.65
2019-05-19T08:52:41.305Z,93.99
2019-05-19T08:57:46.442Z,95.19
2019-05-19T09:02:51.262Z,95.44
2019-05-19T09:07:56.099Z,94.80
2019-05-19T09:13:00.964Z,94.16
2019-05-19T09:18:06.021Z,93.64
2019-05-19T09:23:10.862Z,94.01
2019-05-19T09:28:15.721Z,92.98
2019-05-19T09:33:20.603Z,94.26
2019-05-19T09:38:25.561Z,94.42
2019-05-19T09:43:30.514Z,93.57
2019-05-19T09:48:35.288Z,92.85
2019-05-19T09:53:40.141Z,94.47
2019-05-19T09:58:44.938Z,95.23
2019-05-19T10:03:49.801Z,94.99
2019-05-19T10:09:00.101Z,93.54
2019-05-19T10:14:05.304Z,93.90
2019-05-19T10:19:10.174Z,95.21
2019-05-19T10:24:15.118Z,95.21
2019-05-19T10:29:19.961Z,96.19
2019-05-19T10:34:24.783Z,95.66
2019-05-19T10:39:29.783Z,97.18
2019-05-19T10:44:34.626Z,97.96
2019-05-19T10:49:42.780Z,98.55
2019-05-19T10:54:46.111Z,97.80
2019-05-19T10:59:51.079Z,96.09
2019-05-19T11:04:55.903Z,95.74
2019-05-19T11:10:01.394Z,93.90
2019-05-19T11:15:07.541Z,93.96
2019-05-19T11:20:12.740Z,94.02
2019-05-19T11:25:32.691Z,94.25
2019-05-19T11:30:24.348Z,92.88
2019-05-19T11:35:29.302Z,93.67
2019-05-19T11:40:34.120Z,90.99
2019-05-19T11:45:38.923Z,89.21
2019-05-19T11:50:43.701Z,89.07
2019-05-19T11:55:48.865Z,86.45
2019-05-19T12:00:53.901Z,85.53
2019-05-19T12:05:58.850Z,87.99
2019-05-19T12:11:03.823Z,88.36
2019-05-19T12:16:08.765Z,83.42
2019-05-19T12:21:13.524Z,76.94
2019-05-19T12:26:23.225Z,74.71
2019-05-19T12:31:25.076Z,76.03
2019-05-19T12:36:30.002Z,72.44
2019-05-19T12:41:34.803Z,69.86
2019-05-19T12:46:39.647Z,72.35
2019-05-19T12:51:44.719Z,74.06
2019-05-19T12:56:49.685Z,74.72
2019-05-19T13:01:54.562Z,75.23
2019-05-19T13:06:59.386Z,75.01
2019-05-19T13:12:04.461Z,73.79
2019-05-19T13:17:09.557Z,72.62
2019-05-19T13:22:14.489Z,71.35
2019-05-19T13:27:19.326Z,69.47
2019-05-19T13:32:24.042Z,70.58
2019-05-19T13:37:28.844Z,71.40
2019-05-19T13:42:33.541Z,71.96
2019-05-19T13:47:38.562Z,72.31
2019-05-19T13:52:43.502Z,73.81
2019-05-19T13:57:48.338Z,75.10
2019-05-19T14:02:53.182Z,74.19
2019-05-19T14:07:58.394Z,74.18
2019-05-19T14:13:03.061Z,74.10
2019-05-19T14:18:07.841Z,75.17
2019-05-19T14:23:12.622Z,76.72
2019-05-19T14:28:17.394Z,77.68
2019-05-19T14:33:22.342Z,77.14
2019-05-19T14:38:27.121Z,76.14
2019-05-19T14:43:32.041Z,73.94
2019-05-19T14:48:36.931Z,74.81
2019-05-19T14:53:41.971Z,73.97
2019-05-19T14:58:46.741Z,73.14
2019-05-19T15:03:51.523Z,72.22
2019-05-19T15:08:56.522Z,73.81
2019-05-19T15:14:01.579Z,75.62
2019-05-19T15:19:06.464Z,75.35
2019-05-19T15:24:11.282Z,77.30
2019-05-19T15:29:16.204Z,78.16
2019-05-19T15:34:21.152Z,79.20
2019-05-19T15:39:26.094Z,79.31
2019-05-19T15:44:31.011Z,77.98
2019-05-19T15:49:35.873Z,78.65
2019-05-19T15:54:40.751Z,77.82
2019-05-19T15:59:45.747Z,78.23
2019-05-19T16:04:50.606Z,76.83
2019-05-19T16:09:55.422Z,77.22
2019-05-19T16:15:00.567Z,77.99
2019-05-19T16:20:05.959Z,79.83
2019-05-19T16:25:11.041Z,79.83
2019-05-19T16:30:16.089Z,79.21
2019-05-19T16:35:21.071Z,79.20
2019-05-19T16:40:25.977Z,79.59
2019-05-19T16:45:30.811Z,80.77
2019-05-19T16:50:35.747Z,79.64
2019-05-19T16:55:40.592Z,79.90
2019-05-19T17:00:45.704Z,79.84
2019-05-19T17:05:50.652Z,81.09
2019-05-19T17:10:55.532Z,81.54
2019-05-19T17:16:00.406Z,80.86
2019-05-19T17:21:05.324Z,81.38
2019-05-19T17:26:10.263Z,81.18
2019-05-19T17:31:15.043Z,83.69
2019-05-19T17:36:19.851Z,83.84
2019-05-19T17:41:24.662Z,82.65
2019-05-19T17:46:29.713Z,83.13
2019-05-19T17:51:34.573Z,83.49
2019-05-19T17:56:40.271Z,85.74
2019-05-19T18:01:45.053Z,87.15
2019-05-19T18:06:49.902Z,87.66
2019-05-19T18:11:54.721Z,88.23
2019-05-19T18:16:59.560Z,88.91
2019-05-19T18:22:04.521Z,89.08
2019-05-19T18:27:09.250Z,88.59
2019-05-19T18:32:14.366Z,88.41
2019-05-19T18:37:19.535Z,88.07
2019-05-19T18:42:25.178Z,88.07
2019-05-19T18:47:30.078Z,89.72
2019-05-19T18:52:35.058Z,89.78
2019-05-19T18:57:39.801Z,89.07
2019-05-19T19:02:44.541Z,89.98
2019-05-19T19:07:52.398Z,89.20
2019-05-19T19:12:57.335Z,90.92
2019-05-19T19:18:02.359Z,92.87
2019-05-19T19:23:07.201Z,95.03
2019-05-19T19:28:12.084Z,95.03
2019-05-19T19:33:16.768Z,95.83
2019-05-19T19:38:21.722Z,96.43
2019-05-19T19:43:26.740Z,97.44
2019-05-19T19:48:31.569Z,97.44
2019-05-19T19:53:36.398Z,97.74
2019-05-19T19:58:41.247Z,98.37
2019-05-19T20:03:46.211Z,99.50
2019-05-19T20:08:51.064Z,100.00
2019-05-19T20:13:55.924Z,100.00
2019-05-19T20:19:00.801Z,100.00
2019-05-19T20:24:05.767Z,100.00
2019-05-19T20:29:10.761Z,100.00
2019-05-19T20:34:15.611Z,100.00
2019-05-19T20:39:20.342Z,100.00
2019-05-19T20:44:25.379Z,100.00
2019-05-19T20:49:30.340Z,100.00
2019-05-19T20:54:35.121Z,100.00
2019-05-19T20:59:39.902Z,100.00
2019-05-19T21:04:44.661Z,100.00
2019-05-19T21:09:49.801Z,100.00
2019-05-19T21:14:54.603Z,100.00
2019-05-19T21:19:59.602Z,100.00
2019-05-19T21:25:04.710Z,100.00
2019-05-19T21:30:10.092Z,100.00
2019-05-19T21:35:14.978Z,100.00
2019-05-19T21:40:20.026Z,100.00
2019-05-19T21:45:25.002Z,100.00
2019-05-19T21:50:29.886Z,100.00
2019-05-19T21:55:34.951Z,100.00
2019-05-19T22:00:39.669Z,100.00
2019-05-19T22:05:52.796Z,100.00
2019-05-19T22:10:51.104Z,100.00
2019-05-19T22:16:11.687Z,100.00
2019-05-19T22:21:02.590Z,100.00
2019-05-19T22:26:07.515Z,100.00
2019-05-19T22:31:12.401Z,100.00
2019-05-19T22:36:17.141Z,100.00
2019-05-19T22:41:21.861Z,100.00
2019-05-19T22:46:26.582Z,100.00
2019-05-19T22:51:31.401Z,100.00
2019-05-19T22:56:36.271Z,100.00
2019-05-19T23:01:51.291Z,100.00
2019-05-19T23:06:47.965Z,100.00
2019-05-19T23:11:52.845Z,100.00
2019-05-19T23:16:57.721Z,100.00
2019-05-19T23:22:02.847Z,100.00
2019-05-19T23:27:07.670Z,100.00
2019-05-19T23:32:12.520Z,100.00
2019-05-19T23:37:17.541Z,100.00
2019-05-19T23:42:22.321Z,100.00
2019-05-19T23:47:27.111Z,100.00
2019-05-19T23:52:31.882Z,100.00
2019-05-19T23:57:36.778Z,100.00
